sensor_id;sensor_type;location;lat;lon;timestamp;temperature;humidity
25410;DHT22;13339;50.840;4.346;2022-10-23T00:00:28;17.80;99.90
25410;DHT22;13339;50.840;4.346;2022-10-23T00:02:54;17.90;99.90
25410;DHT22;13339;50.840;4.346;2022-10-23T00:05:21;17.90;99.90
25410;DHT22;13339;50.840;4.346;2022-10-23T00:07:51;18.00;99.90
25410;DHT22;13339;50.840;4.346;2022-10-23T00:10:18;18.10;99.90
25410;DHT22;13339;50.840;4.346;2022-10-23T00:12:44;18.10;99.90
25410;DHT22;13339;50.840;4.346;2022-10-23T00:15:10;18.10;99.90
25410;DHT22;13339;50.840;4.346;2022-10-23T00:17:36;18.20;99.90
25410;DHT22;13339;50.840;4.346;2022-10-23T00:20:03;18.20;99.90
25410;DHT22;13339;50.840;4.346;2022-10-23T00:22:29;18.20;99.90
25410;DHT22;13339;50.840;4.346;2022-10-23T00:24:54;18.30;99.90
25410;DHT22;13339;50.840;4.346;2022-10-23T00:27:20;18.30;99.90
25410;DHT22;13339;50.840;4.346;2022-10-23T00:29:46;18.20;99.90
25410;DHT22;13339;50.840;4.346;2022-10-23T00:32:11;18.20;99.90
25410;DHT22;13339;50.840;4.346;2022-10-23T00:34:37;18.10;99.90
25410;DHT22;13339;50.840;4.346;2022-10-23T00:37:02;18.10;99.90
25410;DHT22;13339;50.840;4.346;2022-10-23T00:39:28;18.10;99.90
25410;DHT22;13339;50.840;4.346;2022-10-23T00:41:54;18.10;99.90
25410;DHT22;13339;50.840;4.346;2022-10-23T00:46:45;18.20;99.90
25410;DHT22;13339;50.840;4.346;2022-10-23T00:49:11;18.10;99.90
25410;DHT22;13339;50.840;4.346;2022-10-23T00:51:49;18.10;99.90
25410;DHT22;13339;50.840;4.346;2022-10-23T00:54:17;18.00;99.90
25410;DHT22;13339;50.840;4.346;2022-10-23T00:56:44;18.10;99.90
25410;DHT22;13339;50.840;4.346;2022-10-23T00:59:11;18.10;99.90
25410;DHT22;13339;50.840;4.346;2022-10-23T01:01:37;18.20;99.90
25410;DHT22;13339;50.840;4.346;2022-10-23T01:04:04;18.20;99.90
25410;DHT22;13339;50.840;4.346;2022-10-23T01:15:22;17.90;99.90
25410;DHT22;13339;50.840;4.346;2022-10-23T01:17:51;17.90;99.90
25410;DHT22;13339;50.840;4.346;2022-10-23T01:31:12;18.00;99.90
25410;DHT22;13339;50.840;4.346;2022-10-23T01:33:50;18.00;99.90
25410;DHT22;13339;50.840;4.346;2022-10-23T01:36:19;18.00;99.90
25410;DHT22;13339;50.840;4.346;2022-10-23T01:38:55;18.00;99.90
25410;DHT22;13339;50.840;4.346;2022-10-23T01:41:28;18.00;99.90
25410;DHT22;13339;50.840;4.346;2022-10-23T01:44:01;18.10;99.90
25410;DHT22;13339;50.840;4.346;2022-10-23T01:46:29;18.10;99.90
25410;DHT22;13339;50.840;4.346;2022-10-23T01:48:57;18.10;99.90
25410;DHT22;13339;50.840;4.346;2022-10-23T01:51:25;18.10;99.90
25410;DHT22;13339;50.840;4.346;2022-10-23T01:53:55;18.20;99.90
25410;DHT22;13339;50.840;4.346;2022-10-23T01:56:31;18.30;99.90
25410;DHT22;13339;50.840;4.346;2022-10-23T01:59:00;18.20;99.90
25410;DHT22;13339;50.840;4.346;2022-10-23T02:01:29;18.30;99.90
25410;DHT22;13339;50.840;4.346;2022-10-23T02:03:56;18.50;99.90
25410;DHT22;13339;50.840;4.346;2022-10-23T02:06:22;18.40;99.90
25410;DHT22;13339;50.840;4.346;2022-10-23T02:08:48;18.50;99.90
25410;DHT22;13339;50.840;4.346;2022-10-23T02:11:16;18.50;99.90
25410;DHT22;13339;50.840;4.346;2022-10-23T02:22:25;18.30;99.90
25410;DHT22;13339;50.840;4.346;2022-10-23T02:25:10;18.20;99.90
25410;DHT22;13339;50.840;4.346;2022-10-23T02:27:41;18.10;99.90
25410;DHT22;13339;50.840;4.346;2022-10-23T02:30:10;18.10;99.90
25410;DHT22;13339;50.840;4.346;2022-10-23T02:32:40;18.10;99.90
25410;DHT22;13339;50.840;4.346;2022-10-23T02:35:06;18.10;99.90
25410;DHT22;13339;50.840;4.346;2022-10-23T02:37:33;18.00;99.90
25410;DHT22;13339;50.840;4.346;2022-10-23T02:39:59;18.00;99.90
25410;DHT22;13339;50.840;4.346;2022-10-23T02:45:16;17.90;99.90
25410;DHT22;13339;50.840;4.346;2022-10-23T02:50:37;18.00;99.90
25410;DHT22;13339;50.840;4.346;2022-10-23T02:53:15;18.00;99.90
25410;DHT22;13339;50.840;4.346;2022-10-23T03:01:09;18.10;99.90
25410;DHT22;13339;50.840;4.346;2022-10-23T03:03:40;18.20;99.90
25410;DHT22;13339;50.840;4.346;2022-10-23T03:06:06;18.10;99.90
25410;DHT22;13339;50.840;4.346;2022-10-23T03:11:14;18.20;99.90
25410;DHT22;13339;50.840;4.346;2022-10-23T03:13:40;18.30;99.90
25410;DHT22;13339;50.840;4.346;2022-10-23T03:16:05;18.40;99.90
25410;DHT22;13339;50.840;4.346;2022-10-23T03:18:31;18.40;99.90
25410;DHT22;13339;50.840;4.346;2022-10-23T03:20:57;18.50;99.90
25410;DHT22;13339;50.840;4.346;2022-10-23T03:23:22;18.60;99.90
25410;DHT22;13339;50.840;4.346;2022-10-23T03:25:48;18.60;99.90
25410;DHT22;13339;50.840;4.346;2022-10-23T03:28:13;18.50;99.90
25410;DHT22;13339;50.840;4.346;2022-10-23T03:30:39;18.50;99.90
25410;DHT22;13339;50.840;4.346;2022-10-23T03:33:04;18.50;99.90
25410;DHT22;13339;50.840;4.346;2022-10-23T03:35:30;18.60;99.90
25410;DHT22;13339;50.840;4.346;2022-10-23T03:37:55;18.70;99.90
25410;DHT22;13339;50.840;4.346;2022-10-23T03:40:21;18.70;99.90
25410;DHT22;13339;50.840;4.346;2022-10-23T03:42:47;18.70;99.90
25410;DHT22;13339;50.840;4.346;2022-10-23T03:45:12;18.60;99.90
25410;DHT22;13339;50.840;4.346;2022-10-23T03:47:38;18.70;99.90
25410;DHT22;13339;50.840;4.346;2022-10-23T03:50:07;18.70;99.90
25410;DHT22;13339;50.840;4.346;2022-10-23T03:52:33;18.70;99.90
25410;DHT22;13339;50.840;4.346;2022-10-23T03:54:58;18.60;99.90
25410;DHT22;13339;50.840;4.346;2022-10-23T03:57:24;18.40;99.90
25410;DHT22;13339;50.840;4.346;2022-10-23T03:59:49;18.50;99.90
25410;DHT22;13339;50.840;4.346;2022-10-23T04:02:15;18.50;99.90
25410;DHT22;13339;50.840;4.346;2022-10-23T04:04:41;18.40;99.90
25410;DHT22;13339;50.840;4.346;2022-10-23T04:07:06;18.40;99.90
25410;DHT22;13339;50.840;4.346;2022-10-23T04:09:32;18.40;99.90
25410;DHT22;13339;50.840;4.346;2022-10-23T04:11:57;18.40;99.90
25410;DHT22;13339;50.840;4.346;2022-10-23T04:14:24;18.40;99.90
25410;DHT22;13339;50.840;4.346;2022-10-23T04:16:50;18.30;99.90
25410;DHT22;13339;50.840;4.346;2022-10-23T04:19:15;18.40;99.90
25410;DHT22;13339;50.840;4.346;2022-10-23T04:21:41;18.30;99.90
25410;DHT22;13339;50.840;4.346;2022-10-23T04:24:07;18.20;99.90
25410;DHT22;13339;50.840;4.346;2022-10-23T04:26:33;18.20;99.90
25410;DHT22;13339;50.840;4.346;2022-10-23T04:28:58;18.10;99.90
25410;DHT22;13339;50.840;4.346;2022-10-23T04:31:24;18.20;99.90
25410;DHT22;13339;50.840;4.346;2022-10-23T04:33:50;18.20;99.90
25410;DHT22;13339;50.840;4.346;2022-10-23T04:36:15;18.20;99.90
25410;DHT22;13339;50.840;4.346;2022-10-23T04:38:41;18.20;99.90
25410;DHT22;13339;50.840;4.346;2022-10-23T04:41:07;18.10;99.90
25410;DHT22;13339;50.840;4.346;2022-10-23T04:43:32;18.20;99.90
25410;DHT22;13339;50.840;4.346;2022-10-23T04:45:58;18.20;99.90
25410;DHT22;13339;50.840;4.346;2022-10-23T04:48:24;18.10;99.90
25410;DHT22;13339;50.840;4.346;2022-10-23T04:50:54;18.20;99.90
25410;DHT22;13339;50.840;4.346;2022-10-23T04:53:21;18.20;99.90
25410;DHT22;13339;50.840;4.346;2022-10-23T04:55:51;18.20;99.90
25410;DHT22;13339;50.840;4.346;2022-10-23T04:58:17;18.20;99.90
25410;DHT22;13339;50.840;4.346;2022-10-23T05:00:43;18.10;99.90
25410;DHT22;13339;50.840;4.346;2022-10-23T05:03:08;18.20;99.90
25410;DHT22;13339;50.840;4.346;2022-10-23T05:05:34;18.20;99.90
25410;DHT22;13339;50.840;4.346;2022-10-23T05:07:59;18.30;99.90
25410;DHT22;13339;50.840;4.346;2022-10-23T05:10:25;18.20;99.90
25410;DHT22;13339;50.840;4.346;2022-10-23T05:12:51;18.20;99.90
25410;DHT22;13339;50.840;4.346;2022-10-23T05:15:16;18.30;99.90
25410;DHT22;13339;50.840;4.346;2022-10-23T05:17:43;18.40;99.90
25410;DHT22;13339;50.840;4.346;2022-10-23T05:20:15;18.40;99.90
25410;DHT22;13339;50.840;4.346;2022-10-23T05:22:43;18.40;99.90
25410;DHT22;13339;50.840;4.346;2022-10-23T05:25:12;18.50;99.90
25410;DHT22;13339;50.840;4.346;2022-10-23T05:27:37;18.40;99.90
25410;DHT22;13339;50.840;4.346;2022-10-23T05:30:04;18.30;99.90
25410;DHT22;13339;50.840;4.346;2022-10-23T05:32:31;18.20;99.90
25410;DHT22;13339;50.840;4.346;2022-10-23T05:34:58;18.20;99.90
25410;DHT22;13339;50.840;4.346;2022-10-23T05:37:25;18.30;99.90
25410;DHT22;13339;50.840;4.346;2022-10-23T05:39:51;18.20;99.90
25410;DHT22;13339;50.840;4.346;2022-10-23T05:42:17;18.30;99.90
25410;DHT22;13339;50.840;4.346;2022-10-23T05:44:42;18.40;99.90
25410;DHT22;13339;50.840;4.346;2022-10-23T05:47:08;18.50;99.90
25410;DHT22;13339;50.840;4.346;2022-10-23T05:49:34;18.50;99.90
25410;DHT22;13339;50.840;4.346;2022-10-23T05:51:59;18.50;99.90
25410;DHT22;13339;50.840;4.346;2022-10-23T05:54:25;18.40;99.90
25410;DHT22;13339;50.840;4.346;2022-10-23T05:56:51;18.50;99.90
25410;DHT22;13339;50.840;4.346;2022-10-23T05:59:16;18.50;99.90
25410;DHT22;13339;50.840;4.346;2022-10-23T06:01:42;18.40;99.90
25410;DHT22;13339;50.840;4.346;2022-10-23T06:04:08;18.20;99.90
25410;DHT22;13339;50.840;4.346;2022-10-23T06:06:33;18.20;99.90
25410;DHT22;13339;50.840;4.346;2022-10-23T06:09:01;18.10;99.90
25410;DHT22;13339;50.840;4.346;2022-10-23T06:11:27;18.00;99.90
25410;DHT22;13339;50.840;4.346;2022-10-23T06:13:52;18.10;99.90
25410;DHT22;13339;50.840;4.346;2022-10-23T06:16:20;18.00;99.90
25410;DHT22;13339;50.840;4.346;2022-10-23T06:18:47;18.00;99.90
25410;DHT22;13339;50.840;4.346;2022-10-23T06:21:13;18.00;99.90
25410;DHT22;13339;50.840;4.346;2022-10-23T06:23:40;17.90;99.90
25410;DHT22;13339;50.840;4.346;2022-10-23T06:26:07;17.80;99.90
25410;DHT22;13339;50.840;4.346;2022-10-23T06:28:33;17.80;99.90
25410;DHT22;13339;50.840;4.346;2022-10-23T06:31:02;17.90;99.90
25410;DHT22;13339;50.840;4.346;2022-10-23T06:33:27;18.00;99.90
25410;DHT22;13339;50.840;4.346;2022-10-23T06:35:55;17.90;99.90
25410;DHT22;13339;50.840;4.346;2022-10-23T06:38:21;18.00;99.90
25410;DHT22;13339;50.840;4.346;2022-10-23T06:40:52;18.00;99.90
25410;DHT22;13339;50.840;4.346;2022-10-23T06:43:18;18.10;99.90
25410;DHT22;13339;50.840;4.346;2022-10-23T06:45:43;18.00;99.90
25410;DHT22;13339;50.840;4.346;2022-10-23T06:48:09;18.00;99.90
25410;DHT22;13339;50.840;4.346;2022-10-23T06:50:36;18.00;99.90
25410;DHT22;13339;50.840;4.346;2022-10-23T06:53:02;18.20;99.90
25410;DHT22;13339;50.840;4.346;2022-10-23T06:55:30;18.20;99.90
25410;DHT22;13339;50.840;4.346;2022-10-23T06:57:56;18.40;99.90
25410;DHT22;13339;50.840;4.346;2022-10-23T07:00:22;18.40;99.90
25410;DHT22;13339;50.840;4.346;2022-10-23T07:02:48;18.50;99.90
25410;DHT22;13339;50.840;4.346;2022-10-23T07:05:14;18.50;99.90
25410;DHT22;13339;50.840;4.346;2022-10-23T07:07:40;18.50;99.90
25410;DHT22;13339;50.840;4.346;2022-10-23T07:10:06;18.40;99.90
25410;DHT22;13339;50.840;4.346;2022-10-23T07:12:31;18.60;99.90
25410;DHT22;13339;50.840;4.346;2022-10-23T07:14:57;18.60;99.90
25410;DHT22;13339;50.840;4.346;2022-10-23T07:17:22;18.70;99.90
25410;DHT22;13339;50.840;4.346;2022-10-23T07:19:48;18.80;99.90
25410;DHT22;13339;50.840;4.346;2022-10-23T07:22:14;18.70;99.90
25410;DHT22;13339;50.840;4.346;2022-10-23T07:24:39;18.70;99.90
25410;DHT22;13339;50.840;4.346;2022-10-23T07:27:05;18.70;99.90
25410;DHT22;13339;50.840;4.346;2022-10-23T07:29:31;18.80;99.90
25410;DHT22;13339;50.840;4.346;2022-10-23T07:31:57;18.90;99.90
25410;DHT22;13339;50.840;4.346;2022-10-23T07:34:25;18.80;99.90
25410;DHT22;13339;50.840;4.346;2022-10-23T07:36:51;18.80;99.90
25410;DHT22;13339;50.840;4.346;2022-10-23T07:39:19;18.70;99.90
25410;DHT22;13339;50.840;4.346;2022-10-23T07:41:46;18.60;99.90
25410;DHT22;13339;50.840;4.346;2022-10-23T07:44:12;18.60;99.90
25410;DHT22;13339;50.840;4.346;2022-10-23T07:46:38;18.70;99.90
25410;DHT22;13339;50.840;4.346;2022-10-23T07:49:03;18.60;99.90
25410;DHT22;13339;50.840;4.346;2022-10-23T07:51:29;18.70;99.90
25410;DHT22;13339;50.840;4.346;2022-10-23T07:53:54;18.80;99.90
25410;DHT22;13339;50.840;4.346;2022-10-23T07:56:25;18.90;99.90
25410;DHT22;13339;50.840;4.346;2022-10-23T07:58:51;19.00;99.90
25410;DHT22;13339;50.840;4.346;2022-10-23T08:01:29;19.00;99.90
25410;DHT22;13339;50.840;4.346;2022-10-23T08:03:55;18.90;99.90
25410;DHT22;13339;50.840;4.346;2022-10-23T08:06:21;19.00;99.90
25410;DHT22;13339;50.840;4.346;2022-10-23T08:08:47;18.90;99.90
25410;DHT22;13339;50.840;4.346;2022-10-23T08:11:13;18.80;99.90
25410;DHT22;13339;50.840;4.346;2022-10-23T08:13:40;18.80;99.90
25410;DHT22;13339;50.840;4.346;2022-10-23T08:16:06;18.80;99.90
25410;DHT22;13339;50.840;4.346;2022-10-23T08:18:32;18.90;99.90
25410;DHT22;13339;50.840;4.346;2022-10-23T08:21:02;18.90;99.90
25410;DHT22;13339;50.840;4.346;2022-10-23T08:23:28;18.90;99.90
25410;DHT22;13339;50.840;4.346;2022-10-23T08:26:04;18.90;99.90
25410;DHT22;13339;50.840;4.346;2022-10-23T08:28:30;18.90;99.90
25410;DHT22;13339;50.840;4.346;2022-10-23T08:30:56;19.00;99.90
25410;DHT22;13339;50.840;4.346;2022-10-23T08:33:22;19.00;99.90
25410;DHT22;13339;50.840;4.346;2022-10-23T08:35:48;19.10;99.90
25410;DHT22;13339;50.840;4.346;2022-10-23T08:38:14;19.10;99.90
25410;DHT22;13339;50.840;4.346;2022-10-23T08:40:43;19.20;99.90
25410;DHT22;13339;50.840;4.346;2022-10-23T08:45:49;19.10;99.90
25410;DHT22;13339;50.840;4.346;2022-10-23T08:48:25;18.90;99.90
25410;DHT22;13339;50.840;4.346;2022-10-23T08:50:58;18.90;99.90
25410;DHT22;13339;50.840;4.346;2022-10-23T08:53:58;18.90;99.90
25410;DHT22;13339;50.840;4.346;2022-10-23T08:56:32;18.90;99.90
25410;DHT22;13339;50.840;4.346;2022-10-23T09:01:45;19.00;99.90
25410;DHT22;13339;50.840;4.346;2022-10-23T09:04:13;19.00;99.90
25410;DHT22;13339;50.840;4.346;2022-10-23T09:06:48;19.00;99.90
25410;DHT22;13339;50.840;4.346;2022-10-23T09:12:16;18.80;99.90
25410;DHT22;13339;50.840;4.346;2022-10-23T09:14:51;18.80;99.90
25410;DHT22;13339;50.840;4.346;2022-10-23T09:22:38;18.90;99.90
25410;DHT22;13339;50.840;4.346;2022-10-23T09:25:09;19.00;99.90
25410;DHT22;13339;50.840;4.346;2022-10-23T09:27:35;19.00;99.90
25410;DHT22;13339;50.840;4.346;2022-10-23T09:30:00;19.20;99.90
25410;DHT22;13339;50.840;4.346;2022-10-23T09:32:34;19.30;99.90
25410;DHT22;13339;50.840;4.346;2022-10-23T09:35:00;19.30;99.90
25410;DHT22;13339;50.840;4.346;2022-10-23T09:37:32;19.20;99.90
25410;DHT22;13339;50.840;4.346;2022-10-23T09:42:36;19.20;99.90
25410;DHT22;13339;50.840;4.346;2022-10-23T09:45:01;19.20;99.90
25410;DHT22;13339;50.840;4.346;2022-10-23T09:47:27;19.30;99.90
25410;DHT22;13339;50.840;4.346;2022-10-23T09:49:55;19.50;99.90
25410;DHT22;13339;50.840;4.346;2022-10-23T09:52:24;19.60;99.90
25410;DHT22;13339;50.840;4.346;2022-10-23T09:54:56;19.50;99.90
25410;DHT22;13339;50.840;4.346;2022-10-23T10:00:03;19.40;99.90
25410;DHT22;13339;50.840;4.346;2022-10-23T10:02:33;19.50;99.90
25410;DHT22;13339;50.840;4.346;2022-10-23T10:05:20;19.50;99.90
25410;DHT22;13339;50.840;4.346;2022-10-23T10:08:06;19.50;99.90
25410;DHT22;13339;50.840;4.346;2022-10-23T10:10:42;19.50;99.90
25410;DHT22;13339;50.840;4.346;2022-10-23T10:21:27;19.50;99.90
25410;DHT22;13339;50.840;4.346;2022-10-23T10:24:01;19.60;99.90
25410;DHT22;13339;50.840;4.346;2022-10-23T10:29:36;19.70;99.90
25410;DHT22;13339;50.840;4.346;2022-10-23T10:37:56;19.90;99.90
25410;DHT22;13339;50.840;4.346;2022-10-23T10:40:31;20.00;99.90
25410;DHT22;13339;50.840;4.346;2022-10-23T10:43:39;20.20;99.90
25410;DHT22;13339;50.840;4.346;2022-10-23T10:48:58;20.40;99.90
25410;DHT22;13339;50.840;4.346;2022-10-23T10:54:51;20.40;99.90
25410;DHT22;13339;50.840;4.346;2022-10-23T11:00:00;20.50;99.90
25410;DHT22;13339;50.840;4.346;2022-10-23T11:02:37;20.60;99.90
25410;DHT22;13339;50.840;4.346;2022-10-23T11:05:45;20.70;99.90
25410;DHT22;13339;50.840;4.346;2022-10-23T11:08:16;20.80;99.90
25410;DHT22;13339;50.840;4.346;2022-10-23T11:10:46;20.60;99.90
25410;DHT22;13339;50.840;4.346;2022-10-23T11:13:28;20.70;99.90
25410;DHT22;13339;50.840;4.346;2022-10-23T11:16:01;20.80;99.90
25410;DHT22;13339;50.840;4.346;2022-10-23T11:18:30;20.90;99.90
25410;DHT22;13339;50.840;4.346;2022-10-23T11:21:03;21.10;99.90
25410;DHT22;13339;50.840;4.346;2022-10-23T11:24:10;21.20;99.90
25410;DHT22;13339;50.840;4.346;2022-10-23T11:38:17;22.00;99.90
25410;DHT22;13339;50.840;4.346;2022-10-23T11:40:51;21.90;99.90
25410;DHT22;13339;50.840;4.346;2022-10-23T11:43:32;21.60;99.90
25410;DHT22;13339;50.840;4.346;2022-10-23T11:48:53;21.70;99.90
25410;DHT22;13339;50.840;4.346;2022-10-23T11:51:44;21.80;99.90
25410;DHT22;13339;50.840;4.346;2022-10-23T11:57:08;22.00;99.90
25410;DHT22;13339;50.840;4.346;2022-10-23T12:02:39;21.80;99.90
25410;DHT22;13339;50.840;4.346;2022-10-23T12:05:24;22.00;99.90
25410;DHT22;13339;50.840;4.346;2022-10-23T12:07:57;22.00;99.90
25410;DHT22;13339;50.840;4.346;2022-10-23T12:10:30;22.10;99.90
25410;DHT22;13339;50.840;4.346;2022-10-23T12:13:04;22.00;99.90
25410;DHT22;13339;50.840;4.346;2022-10-23T12:15:31;22.00;99.90
25410;DHT22;13339;50.840;4.346;2022-10-23T12:18:13;22.00;99.90
25410;DHT22;13339;50.840;4.346;2022-10-23T12:20:59;22.10;99.90
25410;DHT22;13339;50.840;4.346;2022-10-23T12:29:05;22.00;99.90
25410;DHT22;13339;50.840;4.346;2022-10-23T12:39:33;22.10;99.90
25410;DHT22;13339;50.840;4.346;2022-10-23T12:42:04;22.10;99.90
25410;DHT22;13339;50.840;4.346;2022-10-23T12:44:31;22.10;99.90
25410;DHT22;13339;50.840;4.346;2022-10-23T12:46:59;22.30;99.90
25410;DHT22;13339;50.840;4.346;2022-10-23T12:49:28;22.30;99.90
25410;DHT22;13339;50.840;4.346;2022-10-23T12:52:14;22.40;99.90
25410;DHT22;13339;50.840;4.346;2022-10-23T12:54:40;22.40;99.90
25410;DHT22;13339;50.840;4.346;2022-10-23T12:57:23;22.60;99.90
25410;DHT22;13339;50.840;4.346;2022-10-23T12:59:55;22.60;99.90
25410;DHT22;13339;50.840;4.346;2022-10-23T13:02:27;22.70;99.90
25410;DHT22;13339;50.840;4.346;2022-10-23T13:04:54;22.80;99.90
25410;DHT22;13339;50.840;4.346;2022-10-23T13:07:28;22.90;99.90
25410;DHT22;13339;50.840;4.346;2022-10-23T13:09:54;23.00;99.90
25410;DHT22;13339;50.840;4.346;2022-10-23T13:12:31;22.90;99.90
25410;DHT22;13339;50.840;4.346;2022-10-23T13:15:01;22.90;99.90
25410;DHT22;13339;50.840;4.346;2022-10-23T13:17:44;23.00;99.90
25410;DHT22;13339;50.840;4.346;2022-10-23T13:20:21;22.80;99.90
25410;DHT22;13339;50.840;4.346;2022-10-23T13:22:54;22.80;99.90
25410;DHT22;13339;50.840;4.346;2022-10-23T13:27:51;22.70;99.90
25410;DHT22;13339;50.840;4.346;2022-10-23T13:30:33;22.80;99.90
25410;DHT22;13339;50.840;4.346;2022-10-23T13:32:59;22.90;99.90
25410;DHT22;13339;50.840;4.346;2022-10-23T13:35:25;23.00;99.90
25410;DHT22;13339;50.840;4.346;2022-10-23T13:37:51;22.90;99.90
25410;DHT22;13339;50.840;4.346;2022-10-23T13:40:25;23.00;99.90
25410;DHT22;13339;50.840;4.346;2022-10-23T13:42:53;23.00;99.90
25410;DHT22;13339;50.840;4.346;2022-10-23T13:45:22;22.70;99.90
25410;DHT22;13339;50.840;4.346;2022-10-23T13:47:48;22.80;99.90
25410;DHT22;13339;50.840;4.346;2022-10-23T13:50:15;22.80;99.90
25410;DHT22;13339;50.840;4.346;2022-10-23T13:52:40;22.60;99.90
25410;DHT22;13339;50.840;4.346;2022-10-23T13:55:35;22.40;99.90
25410;DHT22;13339;50.840;4.346;2022-10-23T13:58:03;22.50;99.90
25410;DHT22;13339;50.840;4.346;2022-10-23T14:00:28;22.40;99.90
25410;DHT22;13339;50.840;4.346;2022-10-23T14:02:54;22.40;99.90
25410;DHT22;13339;50.840;4.346;2022-10-23T14:05:20;22.40;99.90
25410;DHT22;13339;50.840;4.346;2022-10-23T14:07:45;22.40;99.90
25410;DHT22;13339;50.840;4.346;2022-10-23T14:10:11;22.50;99.90
25410;DHT22;13339;50.840;4.346;2022-10-23T14:12:40;22.50;99.90
25410;DHT22;13339;50.840;4.346;2022-10-23T14:15:07;22.60;99.90
25410;DHT22;13339;50.840;4.346;2022-10-23T14:17:33;22.60;99.90
25410;DHT22;13339;50.840;4.346;2022-10-23T14:19:59;22.50;99.90
25410;DHT22;13339;50.840;4.346;2022-10-23T14:22:25;22.50;99.90
25410;DHT22;13339;50.840;4.346;2022-10-23T14:24:51;22.60;99.90
25410;DHT22;13339;50.840;4.346;2022-10-23T14:27:17;22.50;99.90
25410;DHT22;13339;50.840;4.346;2022-10-23T14:29:42;22.50;99.90
25410;DHT22;13339;50.840;4.346;2022-10-23T14:32:08;22.50;99.90
25410;DHT22;13339;50.840;4.346;2022-10-23T14:34:34;22.60;99.90
25410;DHT22;13339;50.840;4.346;2022-10-23T14:37:00;22.60;99.90
25410;DHT22;13339;50.840;4.346;2022-10-23T14:39:25;22.60;99.90
25410;DHT22;13339;50.840;4.346;2022-10-23T14:41:51;22.60;99.90
25410;DHT22;13339;50.840;4.346;2022-10-23T14:44:16;22.60;99.90
25410;DHT22;13339;50.840;4.346;2022-10-23T14:46:42;22.60;99.90
25410;DHT22;13339;50.840;4.346;2022-10-23T14:49:07;22.50;99.90
25410;DHT22;13339;50.840;4.346;2022-10-23T14:51:34;22.30;99.90
25410;DHT22;13339;50.840;4.346;2022-10-23T14:54:01;22.20;99.90
25410;DHT22;13339;50.840;4.346;2022-10-23T14:56:28;22.20;99.90
25410;DHT22;13339;50.840;4.346;2022-10-23T14:58:54;22.10;99.90
25410;DHT22;13339;50.840;4.346;2022-10-23T15:01:30;22.10;99.90
25410;DHT22;13339;50.840;4.346;2022-10-23T15:03:56;22.00;99.90
25410;DHT22;13339;50.840;4.346;2022-10-23T15:06:22;21.90;99.90
25410;DHT22;13339;50.840;4.346;2022-10-23T15:08:52;22.00;99.90
25410;DHT22;13339;50.840;4.346;2022-10-23T15:11:22;21.90;99.90
25410;DHT22;13339;50.840;4.346;2022-10-23T15:13:47;22.00;99.90
25410;DHT22;13339;50.840;4.346;2022-10-23T15:16:13;22.00;99.90
25410;DHT22;13339;50.840;4.346;2022-10-23T15:18:39;22.00;99.90
25410;DHT22;13339;50.840;4.346;2022-10-23T15:21:06;22.00;99.90
25410;DHT22;13339;50.840;4.346;2022-10-23T15:23:34;22.00;99.90
25410;DHT22;13339;50.840;4.346;2022-10-23T15:26:05;21.80;99.90
25410;DHT22;13339;50.840;4.346;2022-10-23T15:28:31;21.80;99.90
25410;DHT22;13339;50.840;4.346;2022-10-23T15:30:57;21.80;99.90
25410;DHT22;13339;50.840;4.346;2022-10-23T15:33:23;21.70;99.90
25410;DHT22;13339;50.840;4.346;2022-10-23T15:35:50;21.70;99.90
25410;DHT22;13339;50.840;4.346;2022-10-23T15:38:16;21.70;99.90
25410;DHT22;13339;50.840;4.346;2022-10-23T15:40:42;21.70;99.90
25410;DHT22;13339;50.840;4.346;2022-10-23T15:43:10;21.60;99.90
25410;DHT22;13339;50.840;4.346;2022-10-23T15:45:36;21.60;99.90
25410;DHT22;13339;50.840;4.346;2022-10-23T15:48:01;21.50;99.90
25410;DHT22;13339;50.840;4.346;2022-10-23T15:50:27;21.50;99.90
25410;DHT22;13339;50.840;4.346;2022-10-23T15:52:52;21.60;99.90
25410;DHT22;13339;50.840;4.346;2022-10-23T15:55:19;21.60;99.90
25410;DHT22;13339;50.840;4.346;2022-10-23T15:57:44;21.50;99.90
25410;DHT22;13339;50.840;4.346;2022-10-23T16:00:12;21.50;99.90
25410;DHT22;13339;50.840;4.346;2022-10-23T16:02:38;21.50;99.90
25410;DHT22;13339;50.840;4.346;2022-10-23T16:05:04;21.50;99.90
25410;DHT22;13339;50.840;4.346;2022-10-23T16:07:30;21.50;99.90
25410;DHT22;13339;50.840;4.346;2022-10-23T16:09:56;21.40;99.90
25410;DHT22;13339;50.840;4.346;2022-10-23T16:12:21;21.30;99.90
25410;DHT22;13339;50.840;4.346;2022-10-23T16:14:47;21.20;99.90
25410;DHT22;13339;50.840;4.346;2022-10-23T16:17:13;21.10;99.90
25410;DHT22;13339;50.840;4.346;2022-10-23T16:19:39;21.10;99.90
25410;DHT22;13339;50.840;4.346;2022-10-23T16:22:06;21.10;99.90
25410;DHT22;13339;50.840;4.346;2022-10-23T16:24:32;21.10;99.90
25410;DHT22;13339;50.840;4.346;2022-10-23T16:26:58;21.00;99.90
25410;DHT22;13339;50.840;4.346;2022-10-23T16:29:25;21.00;99.90
25410;DHT22;13339;50.840;4.346;2022-10-23T16:31:52;21.00;99.90
25410;DHT22;13339;50.840;4.346;2022-10-23T16:34:19;20.90;99.90
25410;DHT22;13339;50.840;4.346;2022-10-23T16:36:45;20.90;99.90
25410;DHT22;13339;50.840;4.346;2022-10-23T16:39:13;20.90;99.90
25410;DHT22;13339;50.840;4.346;2022-10-23T16:41:38;20.90;99.90
25410;DHT22;13339;50.840;4.346;2022-10-23T16:44:04;20.90;99.90
25410;DHT22;13339;50.840;4.346;2022-10-23T16:46:31;20.90;99.90
25410;DHT22;13339;50.840;4.346;2022-10-23T16:48:56;21.00;99.90
25410;DHT22;13339;50.840;4.346;2022-10-23T16:51:24;20.90;99.90
25410;DHT22;13339;50.840;4.346;2022-10-23T16:53:51;20.80;99.90
25410;DHT22;13339;50.840;4.346;2022-10-23T16:56:19;20.80;99.90
25410;DHT22;13339;50.840;4.346;2022-10-23T16:58:45;20.80;99.90
25410;DHT22;13339;50.840;4.346;2022-10-23T17:01:14;20.70;99.90
25410;DHT22;13339;50.840;4.346;2022-10-23T17:03:42;20.80;99.90
25410;DHT22;13339;50.840;4.346;2022-10-23T17:06:11;20.70;99.90
25410;DHT22;13339;50.840;4.346;2022-10-23T17:08:38;20.60;99.90
25410;DHT22;13339;50.840;4.346;2022-10-23T17:13:31;20.60;99.90
25410;DHT22;13339;50.840;4.346;2022-10-23T17:16:19;20.60;99.90
25410;DHT22;13339;50.840;4.346;2022-10-23T17:18:45;20.70;99.90
25410;DHT22;13339;50.840;4.346;2022-10-23T17:21:15;20.70;99.90
25410;DHT22;13339;50.840;4.346;2022-10-23T17:23:42;20.60;99.90
25410;DHT22;13339;50.840;4.346;2022-10-23T17:26:10;20.60;99.90
25410;DHT22;13339;50.840;4.346;2022-10-23T17:28:36;20.50;99.90
25410;DHT22;13339;50.840;4.346;2022-10-23T17:31:29;20.50;99.90
25410;DHT22;13339;50.840;4.346;2022-10-23T17:33:56;20.50;99.90
25410;DHT22;13339;50.840;4.346;2022-10-23T17:36:24;20.40;99.90
25410;DHT22;13339;50.840;4.346;2022-10-23T17:38:50;20.50;99.90
25410;DHT22;13339;50.840;4.346;2022-10-23T17:41:17;20.50;99.90
25410;DHT22;13339;50.840;4.346;2022-10-23T17:43:43;20.50;99.90
25410;DHT22;13339;50.840;4.346;2022-10-23T17:46:10;20.50;99.90